Share

گرگان, ایران

02:43 AM IRDT on آوریل 25, 2014 (GMT +0430)
Gorgan (OING) Elev -23 ft | 36.91 °N, 54.40 °E | Change Station

Current weather conditions updated 13 minutes ago

Scattered Clouds
ابرهای پراکنده
59 °F
Feels Like 59 °F
N
0
باد متغير باد from شمال
طلوع آفتاب 6:05 AM
غروب آفتاب 7:35 PM
ماه Waning Crescent

Today is forecast to be Much Warmer than yesterday.

فشار 30.09 در
ديد 6.2 مايل، ميل (در برابر كيلومتر
ابری Few 2500 ft
ابرهای پراکنده 3500 ft
قطره شبنم 52 °F
رطوبت 77%
بارش باران 0.00 در
برف عمیق Not available.
مادون قرمز 0 out of 16
Pollen Not available.
تمیزی هوا Not available.
Flu Activity Not available.
METAR OING 242200Z 00000KT 9999 FEW025 SCT035 15/11 Q1019

More Conditions Fewer Conditions

فشار 30.09 در
ديد 6.2 مايل، ميل (در برابر كيلومتر
ابری Few 2500 ft
ابرهای پراکنده 3500 ft
قطره شبنم 52 °F
رطوبت 77%
بارش باران 0.00 در
برف عمیق Not available.
مادون قرمز 0 out of 16
Pollen Not available.
تمیزی هوا Not available.
Flu Activity Not available.
METAR OING 242200Z 00000KT 9999 FEW025 SCT035 15/11 Q1019

More Conditions Fewer Conditions

10-Day Weather Forecast

Almanac

ستاره شناسی

Apr. 25, 2014 Rise Set
وقت حقیقی 6:05 AM IRDT 7:35 PM IRDT
تاریک و روشن اجتماعی 5:38 AM IRDT 8:03 PM IRDT
تاریک روشن دریایی 5:05 AM IRDT 8:36 PM IRDT
شفق و فلق نجومی 4:31 AM IRDT 9:10 PM IRDT
ماه 3:32 AM IRDT (4/25) 3:37 PM IRDT (4/25)
میزان روشنایی روز 14h 24m
طول روز
13h 29m
Tomorrow will be 2m 6s longer.
Waning Crescent, 22% of the Moon is Illuminated
Apr 24
Waning Crescent
Apr 29
New
May 6
ربع اول
May 14
ماه کامل
May 21
ربع آخر

Yesterday's Extremes

Country Highs Country Lows

Community

  • Jone Runs Falls
    Jone Runs Falls
  • Sunset at Apalachicola Bay, Florida
    Sunset at Apalachicola Bay, Florida
  • Clouds mov'n in
    Clouds mov'n in
  • Stacked
    Stacked
  • clouds approaching Red Sox Nation
    clouds approaching Red Sox Nation

WunderPhotos

Upload Photos

1,704,729 photos uploaded!

Nearby

تمیزی هوا

Not available.

عمق برف

Not available.

Coastal Water Temperatures

منطقه درجه حرارت
No Stations Reporting

Earthquake Activity

شهر Distance Mag. Time & Date
No recent earthquake activity has been reported nearby.
Minimum magnitude displayed is 2.5.

Nearby Weather Stations

There are no personal weather stations in this area.

What do you think?

We're not finished. Please let us know what you like, what you don't like, and what you are still missing.